Maria Magdalena — HKCT4 — position and weather

sailwx.info

Track history (hours):
 
Tides and Currents Weather Stations Pressure Air Temp Water Temp Dewpoint Dewpoint Depression Visibility Wind Speed Wind Dir Waves Ship Positions

Maria Magdalena

Last reported at 2017-Nov-19 10:48 UTC. Time now 2017-Nov-23 15:25 UTC.
Position N 10°17' W 075°31'.

Length 12 m.

Type: Towing. MMSI: 730151551.

Date/timePositionNaut miles runAvg speedWind from/ knotsBaromVisibWave heightAir tempDewpointWater temp
2017-Nov-19 10:48N 10°17' W 075°31'0 1.0
2017-Nov-19 10:30N 10°16' W 075°31'  
2017-Nov-16 20:37N 10°17' W 075°31'0 2.8
2017-Nov-16 20:30N 10°17' W 075°31'0 0.6
2017-Nov-16 20:00N 10°17' W 075°31'0 0.0
2017-Nov-16 16:29N 10°17' W 075°31'2 4.5
2017-Nov-16 16:00N 10°19' W 075°32'2 3.4
2017-Nov-16 15:30N 10°18' W 075°30'1 1.7
2017-Nov-16 15:00N 10°19' W 075°31'3 5.3
2017-Nov-16 14:31N 10°21' W 075°31'3 5.0
2017-Nov-16 13:57N 10°24' W 075°32'0 0.9
2017-Nov-16 13:29N 10°24' W 075°32'0 0.0
2017-Nov-16 12:56N 10°24' W 075°32'0 0.0
2017-Nov-16 12:26N 10°24' W 075°32'0 0.0
2017-Nov-16 11:56N 10°24' W 075°32'0 0.0
2017-Nov-16 11:26N 10°24' W 075°32'0 0.0
2017-Nov-16 07:26N 10°24' W 075°32'0 0.2
2017-Nov-16 06:54N 10°24' W 075°32'1 2.1
2017-Nov-16 06:20N 10°23' W 075°32'2 5.4
2017-Nov-16 06:00N 10°21' W 075°31'3 5.1
2017-Nov-16 05:30N 10°19' W 075°31'1 1.7
2017-Nov-16 04:57N 10°18' W 075°30'1 3.1
2017-Nov-16 04:30N 10°18' W 075°32'1 0.0
2017-Nov-14 23:56N 10°17' W 075°31'1 0.1
2017-Nov-14 18:28N 10°17' W 075°31'  
2017-Nov-10 21:31N 10°17' W 075°31'0 0.0
2017-Nov-10 21:30N 10°17' W 075°31'3 5.3
2017-Nov-10 21:00N 10°19' W 075°32'2 3.4
2017-Nov-10 20:27N 10°18' W 075°30'1 1.1
2017-Nov-10 19:58N 10°18' W 075°31'1 3.2
2017-Nov-10 19:30N 10°19' W 075°32'2 0.5
2017-Nov-10 14:54N 10°17' W 075°31'1 0.2
2017-Nov-10 11:07N 10°17' W 075°31'1 0.0
2017-Nov-09 18:29N 10°17' W 075°31'2 0.5
2017-Nov-09 13:49N 10°19' W 075°32'2 5.5
2017-Nov-09 13:28N 10°17' W 075°31'2 4.8
2017-Nov-09 13:00N 10°19' W 075°32'1 1.7
2017-Nov-09 12:30N 10°20' W 075°32'1 1.4
2017-Nov-09 12:00N 10°19' W 075°32'2 4.8
2017-Nov-09 11:29N 10°17' W 075°31'0 0.6
2017-Nov-09 11:00N 10°17' W 075°31'  
Track history (hours):
 
Tides and Currents Weather Stations Pressure Air Temp Water Temp Dewpoint Dewpoint Depression Visibility Wind Speed Wind Dir Waves Ship Positions

Maria Magdalena

Last reported at 2017-Nov-19 10:48 UTC. Time now 2017-Nov-23 15:25 UTC.
Position N 10°17' W 075°31'.

Length 12 m.

Type: Towing. MMSI: 730151551.

Date/timePositionNaut miles runAvg speedWind from/ knotsBaromVisibWave heightAir tempDewpointWater temp
2017-Nov-19 10:48N 10°17' W 075°31'0 1.0
2017-Nov-19 10:30N 10°16' W 075°31'  
2017-Nov-16 20:37N 10°17' W 075°31'0 2.8
2017-Nov-16 20:30N 10°17' W 075°31'0 0.6
2017-Nov-16 20:00N 10°17' W 075°31'0 0.0
2017-Nov-16 16:29N 10°17' W 075°31'2 4.5
2017-Nov-16 16:00N 10°19' W 075°32'2 3.4
2017-Nov-16 15:30N 10°18' W 075°30'1 1.7
2017-Nov-16 15:00N 10°19' W 075°31'3 5.3
2017-Nov-16 14:31N 10°21' W 075°31'3 5.0
2017-Nov-16 13:57N 10°24' W 075°32'0 0.9
2017-Nov-16 13:29N 10°24' W 075°32'0 0.0
2017-Nov-16 12:56N 10°24' W 075°32'0 0.0
2017-Nov-16 12:26N 10°24' W 075°32'0 0.0
2017-Nov-16 11:56N 10°24' W 075°32'0 0.0
2017-Nov-16 11:26N 10°24' W 075°32'0 0.0
2017-Nov-16 07:26N 10°24' W 075°32'0 0.2
2017-Nov-16 06:54N 10°24' W 075°32'1 2.1
2017-Nov-16 06:20N 10°23' W 075°32'2 5.4
2017-Nov-16 06:00N 10°21' W 075°31'3 5.1
2017-Nov-16 05:30N 10°19' W 075°31'1 1.7
2017-Nov-16 04:57N 10°18' W 075°30'1 3.1
2017-Nov-16 04:30N 10°18' W 075°32'1 0.0
2017-Nov-14 23:56N 10°17' W 075°31'1 0.1
2017-Nov-14 18:28N 10°17' W 075°31'  
2017-Nov-10 21:31N 10°17' W 075°31'0 0.0
2017-Nov-10 21:30N 10°17' W 075°31'3 5.3
2017-Nov-10 21:00N 10°19' W 075°32'2 3.4
2017-Nov-10 20:27N 10°18' W 075°30'1 1.1
2017-Nov-10 19:58N 10°18' W 075°31'1 3.2
2017-Nov-10 19:30N 10°19' W 075°32'2 0.5
2017-Nov-10 14:54N 10°17' W 075°31'1 0.2
2017-Nov-10 11:07N 10°17' W 075°31'1 0.0
2017-Nov-09 18:29N 10°17' W 075°31'2 0.5
2017-Nov-09 13:49N 10°19' W 075°32'2 5.5
2017-Nov-09 13:28N 10°17' W 075°31'2 4.8
2017-Nov-09 13:00N 10°19' W 075°32'1 1.7
2017-Nov-09 12:30N 10°20' W 075°32'1 1.4
2017-Nov-09 12:00N 10°19' W 075°32'2 4.8
2017-Nov-09 11:29N 10°17' W 075°31'0 0.6
2017-Nov-09 11:00N 10°17' W 075°31'  

Dump ship's entire track history